Indiana, PA (15701)

2:00 PM EDT on May 22, 2015 (GMT -0400)
Line n Bait Shop | | Change Station
CLOSE
Current Station
Personal Weather Station
Location: Indiana, PA
Elevation: 1257 ft
Nearby Weather Stations
Active Advisory: Frost Advisory

Elev 1257 ft 40.62 °N, 79.15 °W | Updated 11 seconds ago

Mostly Cloudy
Mostly Cloudy
65.2 °F
Feels Like 65.2 °F
N
7.8
Wind Variable Wind from WSW
Gusts 15.6 mph

Today
High -- | Low -- °F
--% Chance of Precip.
Yesterday
High -- | Low -- °F
Precip. -- in
5:54 AM 8:33 PM
Waxing Crescent, 23% visible
Pressure 30.13 in
Visibility 10.0 miles
Clouds Scattered Clouds 4300 ft
Mostly Cloudy 5000 ft
Mostly Cloudy 6000 ft
Dew Point 53 °F
Humidity 64%
Rainfall 0.00 in
Snow Depth Not available.
UV 6.9 out of 12
Pollen 8.90 out of 12
Air Quality Not available.
Flu Activity Sporadic
METAR KIDI 221755Z AUTO 30009G16KT 10SM SCT043 BKN050 BKN060 17/08 A3013 RMK A01

More Conditions Fewer Conditions

Pressure 30.13 in
Visibility 10.0 miles
Clouds Scattered Clouds 4300 ft
Mostly Cloudy 5000 ft
Mostly Cloudy 6000 ft
Dew Point 53 °F
Humidity 64%
Rainfall 0.00 in
Snow Depth Not available.
UV 6.9 out of 12
Pollen 8.90 out of 12
Air Quality Not available.
Flu Activity Sporadic
METAR KIDI 221755Z AUTO 30009G16KT 10SM SCT043 BKN050 BKN060 17/08 A3013 RMK A01

More Conditions Fewer Conditions

10-Day Weather Forecast

Almanac

Astronomy

May. 22, 2015 Rise Set
Actual Time
Civil Twilight
Nautical Twilight
Astronomical Twilight
Moon
Length of Visible Light
Length of Day
Tomorrow will be .
, % of the Moon is Illuminated

Today's Extremes

State Highs State Lows

Community

WunderPhotos

Upload Photos

1,823,272 photos uploaded!

WunderBlogs® & News

Nearby

Air Quality

  Air Quality AQ Index Pollutant
Not available.

Snow Depth

Station Depth Elevation

Earthquake Activity

City Distance Mag. Time & Date
Minimum magnitude displayed is 2.5.

Coastal Water Temperatures

Place Temperature

Stations

Nearby Weather Stations

Station Location Temp. Windchill Dew Point Humidity Wind Precip. Elev Updated Type
                   
Frost Advisory
Statement as of 10:09 AM EDT on May 22, 2015

... Frost advisory remains in effect from midnight tonight to 9 am
EDT Saturday...

* temperatures... in the lower to mid 30s.

* Impacts... sensitive plants may be damaged or destroyed.

Precautionary/preparedness actions...

A frost advisory means that widespread frost is expected.
Sensitive outdoor plants may be killed if left uncovered.